sensor_id;sensor_type;location;lat;lon;timestamp;temperature;humidity
39045;DHT22;52192;52.002;5.956;2024-03-08T00:00:24;6.70;72.10
39045;DHT22;52192;52.002;5.956;2024-03-08T00:02:50;6.70;72.00
39045;DHT22;52192;52.002;5.956;2024-03-08T00:05:19;6.60;72.00
39045;DHT22;52192;52.002;5.956;2024-03-08T00:07:46;6.60;72.00
39045;DHT22;52192;52.002;5.956;2024-03-08T00:10:12;6.60;71.90
39045;DHT22;52192;52.002;5.956;2024-03-08T00:12:42;6.60;71.90
39045;DHT22;52192;52.002;5.956;2024-03-08T00:15:11;6.50;71.80
39045;DHT22;52192;52.002;5.956;2024-03-08T00:17:40;6.50;71.90
39045;DHT22;52192;52.002;5.956;2024-03-08T00:20:06;6.50;71.80
39045;DHT22;52192;52.002;5.956;2024-03-08T00:22:36;6.50;71.80
39045;DHT22;52192;52.002;5.956;2024-03-08T00:25:05;6.50;71.80
39045;DHT22;52192;52.002;5.956;2024-03-08T00:27:34;6.40;71.80
39045;DHT22;52192;52.002;5.956;2024-03-08T00:30:00;6.40;71.80
39045;DHT22;52192;52.002;5.956;2024-03-08T00:32:26;6.40;71.70
39045;DHT22;52192;52.002;5.956;2024-03-08T00:34:57;6.40;71.70
39045;DHT22;52192;52.002;5.956;2024-03-08T00:37:23;6.40;71.60
39045;DHT22;52192;52.002;5.956;2024-03-08T00:39:50;6.40;71.60
39045;DHT22;52192;52.002;5.956;2024-03-08T00:42:17;6.40;71.60
39045;DHT22;52192;52.002;5.956;2024-03-08T00:44:43;6.40;71.50
39045;DHT22;52192;52.002;5.956;2024-03-08T00:47:09;6.30;71.40
39045;DHT22;52192;52.002;5.956;2024-03-08T00:49:35;6.30;71.40
39045;DHT22;52192;52.002;5.956;2024-03-08T00:52:06;6.30;71.40
39045;DHT22;52192;52.002;5.956;2024-03-08T00:54:34;6.30;71.30
39045;DHT22;52192;52.002;5.956;2024-03-08T00:57:00;6.30;71.30
39045;DHT22;52192;52.002;5.956;2024-03-08T00:59:29;6.30;71.30
39045;DHT22;52192;52.002;5.956;2024-03-08T01:01:54;6.20;71.10
39045;DHT22;52192;52.002;5.956;2024-03-08T01:04:21;6.20;71.10
39045;DHT22;52192;52.002;5.956;2024-03-08T01:06:48;6.20;71.00
39045;DHT22;52192;52.002;5.956;2024-03-08T01:09:14;6.20;71.00
39045;DHT22;52192;52.002;5.956;2024-03-08T01:11:44;6.20;70.90
39045;DHT22;52192;52.002;5.956;2024-03-08T01:14:10;6.10;70.90
39045;DHT22;52192;52.002;5.956;2024-03-08T01:16:36;6.10;70.90
39045;DHT22;52192;52.002;5.956;2024-03-08T01:19:02;6.10;70.90
39045;DHT22;52192;52.002;5.956;2024-03-08T01:21:29;6.10;70.90
39045;DHT22;52192;52.002;5.956;2024-03-08T01:23:54;6.10;70.80
39045;DHT22;52192;52.002;5.956;2024-03-08T01:26:20;6.10;70.80
39045;DHT22;52192;52.002;5.956;2024-03-08T01:28:46;6.00;70.70
39045;DHT22;52192;52.002;5.956;2024-03-08T01:31:12;6.00;70.60
39045;DHT22;52192;52.002;5.956;2024-03-08T01:33:39;6.00;70.60
39045;DHT22;52192;52.002;5.956;2024-03-08T01:36:06;6.00;70.50
39045;DHT22;52192;52.002;5.956;2024-03-08T01:38:32;6.00;70.40
39045;DHT22;52192;52.002;5.956;2024-03-08T01:40:57;6.00;70.40
39045;DHT22;52192;52.002;5.956;2024-03-08T01:43:28;6.00;70.40
39045;DHT22;52192;52.002;5.956;2024-03-08T01:45:57;5.90;70.30
39045;DHT22;52192;52.002;5.956;2024-03-08T01:48:24;5.90;70.40
39045;DHT22;52192;52.002;5.956;2024-03-08T01:50:51;5.90;70.40
39045;DHT22;52192;52.002;5.956;2024-03-08T01:53:19;5.90;70.30
39045;DHT22;52192;52.002;5.956;2024-03-08T01:55:47;5.90;70.30
39045;DHT22;52192;52.002;5.956;2024-03-08T01:58:14;5.80;70.30
39045;DHT22;52192;52.002;5.956;2024-03-08T02:00:47;5.80;70.30
39045;DHT22;52192;52.002;5.956;2024-03-08T02:03:17;5.70;70.30
39045;DHT22;52192;52.002;5.956;2024-03-08T02:05:43;5.70;70.30
39045;DHT22;52192;52.002;5.956;2024-03-08T02:08:10;5.70;70.30
39045;DHT22;52192;52.002;5.956;2024-03-08T02:10:44;5.70;70.40
39045;DHT22;52192;52.002;5.956;2024-03-08T02:13:11;5.60;70.30
39045;DHT22;52192;52.002;5.956;2024-03-08T02:15:57;5.60;70.30
39045;DHT22;52192;52.002;5.956;2024-03-08T02:18:25;5.70;70.30
39045;DHT22;52192;52.002;5.956;2024-03-08T02:21:01;5.60;70.30
39045;DHT22;52192;52.002;5.956;2024-03-08T02:23:30;5.60;70.40
39045;DHT22;52192;52.002;5.956;2024-03-08T02:25:57;5.60;70.30
39045;DHT22;52192;52.002;5.956;2024-03-08T02:28:24;5.50;70.30
39045;DHT22;52192;52.002;5.956;2024-03-08T02:30:53;5.50;70.30
39045;DHT22;52192;52.002;5.956;2024-03-08T02:33:22;5.50;70.30
39045;DHT22;52192;52.002;5.956;2024-03-08T02:35:49;5.50;70.40
39045;DHT22;52192;52.002;5.956;2024-03-08T02:38:20;5.40;70.40
39045;DHT22;52192;52.002;5.956;2024-03-08T02:40:51;5.40;70.50
39045;DHT22;52192;52.002;5.956;2024-03-08T02:43:18;5.40;70.40
39045;DHT22;52192;52.002;5.956;2024-03-08T02:45:45;5.40;70.40
39045;DHT22;52192;52.002;5.956;2024-03-08T02:48:12;5.40;70.50
39045;DHT22;52192;52.002;5.956;2024-03-08T02:50:38;5.30;70.50
39045;DHT22;52192;52.002;5.956;2024-03-08T02:53:11;5.30;70.50
39045;DHT22;52192;52.002;5.956;2024-03-08T02:55:38;5.30;70.50
39045;DHT22;52192;52.002;5.956;2024-03-08T02:58:05;5.30;70.50
39045;DHT22;52192;52.002;5.956;2024-03-08T03:00:31;5.20;70.50
39045;DHT22;52192;52.002;5.956;2024-03-08T03:02:58;5.20;70.60
39045;DHT22;52192;52.002;5.956;2024-03-08T03:05:24;5.20;70.60
39045;DHT22;52192;52.002;5.956;2024-03-08T03:07:50;5.10;70.60
39045;DHT22;52192;52.002;5.956;2024-03-08T03:10:17;5.10;70.60
39045;DHT22;52192;52.002;5.956;2024-03-08T03:12:44;5.10;70.60
39045;DHT22;52192;52.002;5.956;2024-03-08T03:15:13;5.10;70.70
39045;DHT22;52192;52.002;5.956;2024-03-08T03:17:48;5.10;70.70
39045;DHT22;52192;52.002;5.956;2024-03-08T03:20:17;5.10;70.70
39045;DHT22;52192;52.002;5.956;2024-03-08T03:22:49;5.10;70.70
39045;DHT22;52192;52.002;5.956;2024-03-08T03:25:19;5.00;70.70
39045;DHT22;52192;52.002;5.956;2024-03-08T03:27:59;5.00;70.70
39045;DHT22;52192;52.002;5.956;2024-03-08T03:30:25;5.00;70.60
39045;DHT22;52192;52.002;5.956;2024-03-08T03:33:02;5.00;70.70
39045;DHT22;52192;52.002;5.956;2024-03-08T03:35:32;5.00;70.70
39045;DHT22;52192;52.002;5.956;2024-03-08T03:37:59;5.00;70.70
39045;DHT22;52192;52.002;5.956;2024-03-08T03:40:35;4.90;70.80
39045;DHT22;52192;52.002;5.956;2024-03-08T03:43:01;4.90;70.80
39045;DHT22;52192;52.002;5.956;2024-03-08T03:45:28;4.90;70.80
39045;DHT22;52192;52.002;5.956;2024-03-08T03:47:54;4.90;70.80
39045;DHT22;52192;52.002;5.956;2024-03-08T03:50:20;4.90;70.80
39045;DHT22;52192;52.002;5.956;2024-03-08T03:52:48;4.90;70.80
39045;DHT22;52192;52.002;5.956;2024-03-08T03:55:14;4.90;70.80
39045;DHT22;52192;52.002;5.956;2024-03-08T03:57:41;4.90;70.80
39045;DHT22;52192;52.002;5.956;2024-03-08T04:00:08;4.90;70.80
39045;DHT22;52192;52.002;5.956;2024-03-08T04:02:39;4.90;70.80
39045;DHT22;52192;52.002;5.956;2024-03-08T04:05:09;4.90;70.80
39045;DHT22;52192;52.002;5.956;2024-03-08T04:07:35;4.90;70.80
39045;DHT22;52192;52.002;5.956;2024-03-08T04:10:03;4.80;70.80
39045;DHT22;52192;52.002;5.956;2024-03-08T04:12:29;4.80;70.80
39045;DHT22;52192;52.002;5.956;2024-03-08T04:14:55;4.80;70.80
39045;DHT22;52192;52.002;5.956;2024-03-08T04:17:22;4.80;70.80
39045;DHT22;52192;52.002;5.956;2024-03-08T04:19:50;4.80;70.80
39045;DHT22;52192;52.002;5.956;2024-03-08T04:22:16;4.80;70.80
39045;DHT22;52192;52.002;5.956;2024-03-08T04:24:44;4.70;70.80
39045;DHT22;52192;52.002;5.956;2024-03-08T04:27:10;4.70;70.80
39045;DHT22;52192;52.002;5.956;2024-03-08T04:29:36;4.70;70.90
39045;DHT22;52192;52.002;5.956;2024-03-08T04:32:06;4.70;70.90
39045;DHT22;52192;52.002;5.956;2024-03-08T04:34:32;4.70;70.90
39045;DHT22;52192;52.002;5.956;2024-03-08T04:37:00;4.70;70.90
39045;DHT22;52192;52.002;5.956;2024-03-08T04:39:26;4.70;70.90
39045;DHT22;52192;52.002;5.956;2024-03-08T04:42:00;4.70;70.90
39045;DHT22;52192;52.002;5.956;2024-03-08T04:44:28;4.70;70.90
39045;DHT22;52192;52.002;5.956;2024-03-08T04:46:55;4.60;70.90
39045;DHT22;52192;52.002;5.956;2024-03-08T04:49:21;4.60;71.00
39045;DHT22;52192;52.002;5.956;2024-03-08T04:51:48;4.60;71.00
39045;DHT22;52192;52.002;5.956;2024-03-08T04:54:14;4.60;71.00
39045;DHT22;52192;52.002;5.956;2024-03-08T04:56:40;4.60;71.00
39045;DHT22;52192;52.002;5.956;2024-03-08T04:59:06;4.60;71.00
39045;DHT22;52192;52.002;5.956;2024-03-08T05:01:34;4.60;70.90
39045;DHT22;52192;52.002;5.956;2024-03-08T05:03:59;4.60;71.00
39045;DHT22;52192;52.002;5.956;2024-03-08T05:06:25;4.60;71.00
39045;DHT22;52192;52.002;5.956;2024-03-08T05:08:51;4.60;71.00
39045;DHT22;52192;52.002;5.956;2024-03-08T05:11:17;4.60;71.00
39045;DHT22;52192;52.002;5.956;2024-03-08T05:13:43;4.60;71.10
39045;DHT22;52192;52.002;5.956;2024-03-08T05:16:10;4.50;71.10
39045;DHT22;52192;52.002;5.956;2024-03-08T05:18:37;4.50;71.10
39045;DHT22;52192;52.002;5.956;2024-03-08T05:21:03;4.50;71.10
39045;DHT22;52192;52.002;5.956;2024-03-08T05:23:30;4.50;71.10
39045;DHT22;52192;52.002;5.956;2024-03-08T05:25:56;4.50;71.20
39045;DHT22;52192;52.002;5.956;2024-03-08T05:28:22;4.50;71.10
39045;DHT22;52192;52.002;5.956;2024-03-08T05:30:48;4.50;71.10
39045;DHT22;52192;52.002;5.956;2024-03-08T05:33:14;4.50;71.10
39045;DHT22;52192;52.002;5.956;2024-03-08T05:35:40;4.50;71.20
39045;DHT22;52192;52.002;5.956;2024-03-08T05:38:06;4.50;71.10
39045;DHT22;52192;52.002;5.956;2024-03-08T05:40:32;4.50;71.20
39045;DHT22;52192;52.002;5.956;2024-03-08T05:42:59;4.40;71.10
39045;DHT22;52192;52.002;5.956;2024-03-08T05:45:25;4.40;71.20
39045;DHT22;52192;52.002;5.956;2024-03-08T05:47:51;4.40;71.80
39045;DHT22;52192;52.002;5.956;2024-03-08T05:50:18;4.40;71.20
39045;DHT22;52192;52.002;5.956;2024-03-08T05:52:45;4.40;71.30
39045;DHT22;52192;52.002;5.956;2024-03-08T05:55:11;4.40;71.30
39045;DHT22;52192;52.002;5.956;2024-03-08T05:57:40;4.40;71.30
39045;DHT22;52192;52.002;5.956;2024-03-08T06:00:06;4.40;71.30
39045;DHT22;52192;52.002;5.956;2024-03-08T06:02:32;4.40;71.30
39045;DHT22;52192;52.002;5.956;2024-03-08T06:04:58;4.40;71.30
39045;DHT22;52192;52.002;5.956;2024-03-08T06:07:24;4.40;71.30
39045;DHT22;52192;52.002;5.956;2024-03-08T06:09:50;4.40;71.30
39045;DHT22;52192;52.002;5.956;2024-03-08T06:12:15;4.40;71.40
39045;DHT22;52192;52.002;5.956;2024-03-08T06:14:45;4.40;71.40
39045;DHT22;52192;52.002;5.956;2024-03-08T06:17:11;4.40;71.30
39045;DHT22;52192;52.002;5.956;2024-03-08T06:19:37;4.30;71.30
39045;DHT22;52192;52.002;5.956;2024-03-08T06:22:03;4.30;71.20
39045;DHT22;52192;52.002;5.956;2024-03-08T06:24:31;4.40;71.20
39045;DHT22;52192;52.002;5.956;2024-03-08T06:26:57;4.40;71.30
39045;DHT22;52192;52.002;5.956;2024-03-08T06:29:23;4.40;71.30
39045;DHT22;52192;52.002;5.956;2024-03-08T06:31:49;4.40;71.40
39045;DHT22;52192;52.002;5.956;2024-03-08T06:34:15;4.30;71.30
39045;DHT22;52192;52.002;5.956;2024-03-08T06:36:41;4.40;71.40
39045;DHT22;52192;52.002;5.956;2024-03-08T06:39:07;4.40;71.30
39045;DHT22;52192;52.002;5.956;2024-03-08T06:41:38;4.40;71.20
39045;DHT22;52192;52.002;5.956;2024-03-08T06:44:04;4.40;71.20
39045;DHT22;52192;52.002;5.956;2024-03-08T06:46:30;4.40;71.20
39045;DHT22;52192;52.002;5.956;2024-03-08T06:48:56;4.40;71.20
39045;DHT22;52192;52.002;5.956;2024-03-08T06:51:22;4.40;71.20
39045;DHT22;52192;52.002;5.956;2024-03-08T06:53:47;4.50;71.10
39045;DHT22;52192;52.002;5.956;2024-03-08T06:56:14;4.50;71.00
39045;DHT22;52192;52.002;5.956;2024-03-08T06:58:40;4.60;71.00
39045;DHT22;52192;52.002;5.956;2024-03-08T07:01:06;4.60;71.00
39045;DHT22;52192;52.002;5.956;2024-03-08T07:03:33;4.60;71.00
39045;DHT22;52192;52.002;5.956;2024-03-08T07:05:59;4.60;71.00
39045;DHT22;52192;52.002;5.956;2024-03-08T07:08:25;4.60;70.90
39045;DHT22;52192;52.002;5.956;2024-03-08T07:10:52;4.60;70.90
39045;DHT22;52192;52.002;5.956;2024-03-08T07:13:18;4.70;70.90
39045;DHT22;52192;52.002;5.956;2024-03-08T07:15:44;4.70;70.90
39045;DHT22;52192;52.002;5.956;2024-03-08T07:18:11;4.70;70.90
39045;DHT22;52192;52.002;5.956;2024-03-08T07:20:40;4.80;70.90
39045;DHT22;52192;52.002;5.956;2024-03-08T07:23:06;4.80;70.80
39045;DHT22;52192;52.002;5.956;2024-03-08T07:25:34;4.80;70.70
39045;DHT22;52192;52.002;5.956;2024-03-08T07:28:00;4.80;70.70
39045;DHT22;52192;52.002;5.956;2024-03-08T07:30:27;4.90;70.70
39045;DHT22;52192;52.002;5.956;2024-03-08T07:33:11;4.90;70.70
39045;DHT22;52192;52.002;5.956;2024-03-08T07:35:38;5.00;70.70
39045;DHT22;52192;52.002;5.956;2024-03-08T07:38:07;5.00;70.60
39045;DHT22;52192;52.002;5.956;2024-03-08T07:40:41;5.10;70.50
39045;DHT22;52192;52.002;5.956;2024-03-08T07:43:10;5.20;70.50
39045;DHT22;52192;52.002;5.956;2024-03-08T07:45:40;5.20;70.30
39045;DHT22;52192;52.002;5.956;2024-03-08T07:48:06;5.20;70.20
39045;DHT22;52192;52.002;5.956;2024-03-08T07:50:39;5.30;70.30
39045;DHT22;52192;52.002;5.956;2024-03-08T07:53:09;5.30;70.10
39045;DHT22;52192;52.002;5.956;2024-03-08T07:55:35;5.40;70.10
39045;DHT22;52192;52.002;5.956;2024-03-08T07:58:05;5.40;70.00
39045;DHT22;52192;52.002;5.956;2024-03-08T08:00:31;5.40;70.00
39045;DHT22;52192;52.002;5.956;2024-03-08T08:02:57;5.40;70.00
39045;DHT22;52192;52.002;5.956;2024-03-08T08:05:23;5.50;70.00
39045;DHT22;52192;52.002;5.956;2024-03-08T08:07:48;5.60;70.00
39045;DHT22;52192;52.002;5.956;2024-03-08T08:10:15;5.60;69.80
39045;DHT22;52192;52.002;5.956;2024-03-08T08:12:49;5.70;69.70
39045;DHT22;52192;52.002;5.956;2024-03-08T08:15:15;5.80;69.60
39045;DHT22;52192;52.002;5.956;2024-03-08T08:17:42;5.80;69.40
39045;DHT22;52192;52.002;5.956;2024-03-08T08:20:09;5.90;69.40
39045;DHT22;52192;52.002;5.956;2024-03-08T08:22:39;6.00;69.40
39045;DHT22;52192;52.002;5.956;2024-03-08T08:25:06;6.00;69.20
39045;DHT22;52192;52.002;5.956;2024-03-08T08:27:32;6.10;69.30
39045;DHT22;52192;52.002;5.956;2024-03-08T08:29:58;6.20;69.20
39045;DHT22;52192;52.002;5.956;2024-03-08T08:32:24;6.20;69.10
39045;DHT22;52192;52.002;5.956;2024-03-08T08:34:50;6.30;69.00
39045;DHT22;52192;52.002;5.956;2024-03-08T08:37:16;6.30;68.90
39045;DHT22;52192;52.002;5.956;2024-03-08T08:39:42;6.40;68.80
39045;DHT22;52192;52.002;5.956;2024-03-08T08:42:08;6.40;68.70
39045;DHT22;52192;52.002;5.956;2024-03-08T08:44:36;6.50;68.70
39045;DHT22;52192;52.002;5.956;2024-03-08T08:47:02;6.60;68.60
39045;DHT22;52192;52.002;5.956;2024-03-08T08:49:29;6.70;68.50
39045;DHT22;52192;52.002;5.956;2024-03-08T08:51:56;6.80;68.40
39045;DHT22;52192;52.002;5.956;2024-03-08T08:54:24;6.90;68.40
39045;DHT22;52192;52.002;5.956;2024-03-08T08:56:50;7.00;68.20
39045;DHT22;52192;52.002;5.956;2024-03-08T08:59:16;7.10;68.00
39045;DHT22;52192;52.002;5.956;2024-03-08T09:01:45;7.20;67.90
39045;DHT22;52192;52.002;5.956;2024-03-08T09:04:13;7.30;67.70
39045;DHT22;52192;52.002;5.956;2024-03-08T09:06:39;7.40;67.60
39045;DHT22;52192;52.002;5.956;2024-03-08T09:09:09;7.60;67.50
39045;DHT22;52192;52.002;5.956;2024-03-08T09:11:36;7.70;67.20
39045;DHT22;52192;52.002;5.956;2024-03-08T09:14:07;7.80;67.10
39045;DHT22;52192;52.002;5.956;2024-03-08T09:16:32;7.90;67.00
39045;DHT22;52192;52.002;5.956;2024-03-08T09:18:58;8.10;66.80
39045;DHT22;52192;52.002;5.956;2024-03-08T09:21:25;8.20;66.70
39045;DHT22;52192;52.002;5.956;2024-03-08T09:23:51;8.40;66.40
39045;DHT22;52192;52.002;5.956;2024-03-08T09:26:17;8.50;66.20
39045;DHT22;52192;52.002;5.956;2024-03-08T09:28:43;8.60;66.00
39045;DHT22;52192;52.002;5.956;2024-03-08T09:31:09;8.60;65.70
39045;DHT22;52192;52.002;5.956;2024-03-08T09:33:37;8.70;65.50
39045;DHT22;52192;52.002;5.956;2024-03-08T09:36:05;8.70;65.40
39045;DHT22;52192;52.002;5.956;2024-03-08T09:38:33;8.80;65.30
39045;DHT22;52192;52.002;5.956;2024-03-08T09:41:00;8.90;65.30
39045;DHT22;52192;52.002;5.956;2024-03-08T09:43:27;9.10;65.10
39045;DHT22;52192;52.002;5.956;2024-03-08T09:45:53;9.20;64.80
39045;DHT22;52192;52.002;5.956;2024-03-08T09:48:22;9.40;64.60
39045;DHT22;52192;52.002;5.956;2024-03-08T09:50:48;9.50;63.80
39045;DHT22;52192;52.002;5.956;2024-03-08T09:53:15;9.60;64.00
39045;DHT22;52192;52.002;5.956;2024-03-08T09:55:40;9.70;64.00
39045;DHT22;52192;52.002;5.956;2024-03-08T09:58:11;9.80;63.50
39045;DHT22;52192;52.002;5.956;2024-03-08T10:00:56;9.90;63.40
39045;DHT22;52192;52.002;5.956;2024-03-08T10:03:27;10.00;63.30
39045;DHT22;52192;52.002;5.956;2024-03-08T10:05:54;10.10;62.90
39045;DHT22;52192;52.002;5.956;2024-03-08T10:08:22;10.10;62.80
39045;DHT22;52192;52.002;5.956;2024-03-08T10:10:47;10.20;62.60
39045;DHT22;52192;52.002;5.956;2024-03-08T10:13:15;10.30;62.40
39045;DHT22;52192;52.002;5.956;2024-03-08T10:15:42;10.40;62.20
39045;DHT22;52192;52.002;5.956;2024-03-08T10:18:09;10.50;62.10
39045;DHT22;52192;52.002;5.956;2024-03-08T10:20:35;10.70;62.00
39045;DHT22;52192;52.002;5.956;2024-03-08T10:23:02;10.90;61.40
39045;DHT22;52192;52.002;5.956;2024-03-08T10:25:31;11.00;61.40
39045;DHT22;52192;52.002;5.956;2024-03-08T10:27:57;11.20;61.20
39045;DHT22;52192;52.002;5.956;2024-03-08T10:30:23;11.30;61.00
39045;DHT22;52192;52.002;5.956;2024-03-08T10:32:49;11.50;60.70
39045;DHT22;52192;52.002;5.956;2024-03-08T10:35:15;11.60;60.50
39045;DHT22;52192;52.002;5.956;2024-03-08T10:37:46;11.70;60.10
39045;DHT22;52192;52.002;5.956;2024-03-08T10:40:19;11.80;60.20
39045;DHT22;52192;52.002;5.956;2024-03-08T10:42:56;12.00;60.00
39045;DHT22;52192;52.002;5.956;2024-03-08T10:45:49;12.20;59.80
39045;DHT22;52192;52.002;5.956;2024-03-08T10:48:31;12.30;59.50
39045;DHT22;52192;52.002;5.956;2024-03-08T10:50:59;12.40;58.70
39045;DHT22;52192;52.002;5.956;2024-03-08T10:53:27;12.60;58.70
39045;DHT22;52192;52.002;5.956;2024-03-08T10:55:56;12.70;58.80
39045;DHT22;52192;52.002;5.956;2024-03-08T10:58:24;12.80;58.00
39045;DHT22;52192;52.002;5.956;2024-03-08T11:00:53;12.80;57.60
39045;DHT22;52192;52.002;5.956;2024-03-08T11:09:33;13.10;57.50
39045;DHT22;52192;52.002;5.956;2024-03-08T11:14:47;13.50;57.20
39045;DHT22;52192;52.002;5.956;2024-03-08T11:17:15;13.70;56.90
39045;DHT22;52192;52.002;5.956;2024-03-08T11:19:46;13.90;56.70
39045;DHT22;52192;52.002;5.956;2024-03-08T11:22:26;14.20;56.40
39045;DHT22;52192;52.002;5.956;2024-03-08T11:24:53;14.30;55.70
39045;DHT22;52192;52.002;5.956;2024-03-08T11:27:19;14.40;55.60
39045;DHT22;52192;52.002;5.956;2024-03-08T11:30:01;14.40;55.30
39045;DHT22;52192;52.002;5.956;2024-03-08T11:32:35;14.50;54.90
39045;DHT22;52192;52.002;5.956;2024-03-08T11:35:03;14.60;54.60
39045;DHT22;52192;52.002;5.956;2024-03-08T11:37:34;14.60;53.80
39045;DHT22;52192;52.002;5.956;2024-03-08T11:40:01;14.70;53.90
39045;DHT22;52192;52.002;5.956;2024-03-08T11:42:30;14.70;53.60
39045;DHT22;52192;52.002;5.956;2024-03-08T11:44:56;14.70;53.10
39045;DHT22;52192;52.002;5.956;2024-03-08T11:47:22;14.80;52.60
39045;DHT22;52192;52.002;5.956;2024-03-08T11:49:48;14.90;52.30
39045;DHT22;52192;52.002;5.956;2024-03-08T11:52:16;14.90;51.70
39045;DHT22;52192;52.002;5.956;2024-03-08T11:54:47;14.90;51.20
39045;DHT22;52192;52.002;5.956;2024-03-08T11:57:18;14.90;51.00
39045;DHT22;52192;52.002;5.956;2024-03-08T11:59:52;14.90;51.20
39045;DHT22;52192;52.002;5.956;2024-03-08T12:02:19;15.10;51.40
39045;DHT22;52192;52.002;5.956;2024-03-08T12:04:45;15.30;50.80
39045;DHT22;52192;52.002;5.956;2024-03-08T12:07:13;15.40;50.40
39045;DHT22;52192;52.002;5.956;2024-03-08T12:09:42;15.50;49.90
39045;DHT22;52192;52.002;5.956;2024-03-08T12:12:12;15.60;49.60
39045;DHT22;52192;52.002;5.956;2024-03-08T12:14:39;15.70;49.40
39045;DHT22;52192;52.002;5.956;2024-03-08T12:17:08;15.80;48.50
39045;DHT22;52192;52.002;5.956;2024-03-08T12:19:35;15.70;48.50
39045;DHT22;52192;52.002;5.956;2024-03-08T12:22:09;15.70;48.70
39045;DHT22;52192;52.002;5.956;2024-03-08T12:24:35;15.70;48.90
39045;DHT22;52192;52.002;5.956;2024-03-08T12:27:17;15.80;48.50
39045;DHT22;52192;52.002;5.956;2024-03-08T12:29:43;15.80;47.90
39045;DHT22;52192;52.002;5.956;2024-03-08T12:32:10;15.80;47.70
39045;DHT22;52192;52.002;5.956;2024-03-08T12:34:37;15.80;47.50
39045;DHT22;52192;52.002;5.956;2024-03-08T12:37:02;15.90;47.10
39045;DHT22;52192;52.002;5.956;2024-03-08T12:39:32;16.00;47.10
39045;DHT22;52192;52.002;5.956;2024-03-08T12:41:58;16.00;46.60
39045;DHT22;52192;52.002;5.956;2024-03-08T12:44:25;16.00;46.50
39045;DHT22;52192;52.002;5.956;2024-03-08T12:46:51;16.00;46.50
39045;DHT22;52192;52.002;5.956;2024-03-08T12:49:19;16.20;46.60
39045;DHT22;52192;52.002;5.956;2024-03-08T12:51:48;16.20;46.20
39045;DHT22;52192;52.002;5.956;2024-03-08T12:54:13;16.20;46.10
39045;DHT22;52192;52.002;5.956;2024-03-08T12:56:39;16.10;46.40
39045;DHT22;52192;52.002;5.956;2024-03-08T12:59:06;16.20;46.20
39045;DHT22;52192;52.002;5.956;2024-03-08T13:01:36;16.20;45.60
39045;DHT22;52192;52.002;5.956;2024-03-08T13:04:05;16.10;46.10
39045;DHT22;52192;52.002;5.956;2024-03-08T13:06:32;16.10;46.30
39045;DHT22;52192;52.002;5.956;2024-03-08T13:08:58;16.20;46.30
39045;DHT22;52192;52.002;5.956;2024-03-08T13:11:25;16.20;46.30
39045;DHT22;52192;52.002;5.956;2024-03-08T13:13:51;16.20;46.00
39045;DHT22;52192;52.002;5.956;2024-03-08T13:16:18;16.30;46.10
39045;DHT22;52192;52.002;5.956;2024-03-08T13:18:45;16.40;45.90
39045;DHT22;52192;52.002;5.956;2024-03-08T13:21:11;16.40;45.90
39045;DHT22;52192;52.002;5.956;2024-03-08T13:23:40;16.50;45.80
39045;DHT22;52192;52.002;5.956;2024-03-08T13:26:07;16.50;45.50
39045;DHT22;52192;52.002;5.956;2024-03-08T13:28:33;16.40;45.70
39045;DHT22;52192;52.002;5.956;2024-03-08T13:31:12;16.40;46.00
39045;DHT22;52192;52.002;5.956;2024-03-08T13:33:40;16.50;45.90
39045;DHT22;52192;52.002;5.956;2024-03-08T13:36:08;16.60;46.00
39045;DHT22;52192;52.002;5.956;2024-03-08T13:38:49;16.80;46.10
39045;DHT22;52192;52.002;5.956;2024-03-08T13:41:15;17.00;45.60
39045;DHT22;52192;52.002;5.956;2024-03-08T13:43:43;17.20;45.00
39045;DHT22;52192;52.002;5.956;2024-03-08T13:46:09;17.60;44.90
39045;DHT22;52192;52.002;5.956;2024-03-08T13:48:36;18.60;43.70
39045;DHT22;52192;52.002;5.956;2024-03-08T13:51:06;19.90;42.10
39045;DHT22;52192;52.002;5.956;2024-03-08T13:53:32;21.30;40.50
39045;DHT22;52192;52.002;5.956;2024-03-08T13:56:02;22.50;39.20
39045;DHT22;52192;52.002;5.956;2024-03-08T13:58:28;23.50;38.20
39045;DHT22;52192;52.002;5.956;2024-03-08T14:00:54;24.50;36.80
39045;DHT22;52192;52.002;5.956;2024-03-08T14:03:21;25.20;35.80
39045;DHT22;52192;52.002;5.956;2024-03-08T14:05:46;25.80;34.90
39045;DHT22;52192;52.002;5.956;2024-03-08T14:08:12;26.30;33.90
39045;DHT22;52192;52.002;5.956;2024-03-08T14:10:39;26.70;33.70
39045;DHT22;52192;52.002;5.956;2024-03-08T14:13:05;27.30;33.50
39045;DHT22;52192;52.002;5.956;2024-03-08T14:15:32;27.70;33.00
39045;DHT22;52192;52.002;5.956;2024-03-08T14:17:59;28.10;32.30
39045;DHT22;52192;52.002;5.956;2024-03-08T14:20:25;28.30;32.20
39045;DHT22;52192;52.002;5.956;2024-03-08T14:22:52;28.60;31.80
39045;DHT22;52192;52.002;5.956;2024-03-08T14:25:18;28.70;31.60
39045;DHT22;52192;52.002;5.956;2024-03-08T14:27:44;28.70;30.60
39045;DHT22;52192;52.002;5.956;2024-03-08T14:30:12;28.40;30.10
39045;DHT22;52192;52.002;5.956;2024-03-08T14:32:37;28.30;30.80
39045;DHT22;52192;52.002;5.956;2024-03-08T14:35:05;28.50;30.80
39045;DHT22;52192;52.002;5.956;2024-03-08T14:37:31;28.80;30.70
39045;DHT22;52192;52.002;5.956;2024-03-08T14:39:57;29.10;30.60
39045;DHT22;52192;52.002;5.956;2024-03-08T14:42:22;29.20;30.40
39045;DHT22;52192;52.002;5.956;2024-03-08T14:44:48;29.30;30.10
39045;DHT22;52192;52.002;5.956;2024-03-08T14:47:17;29.20;30.00
39045;DHT22;52192;52.002;5.956;2024-03-08T14:49:43;29.00;30.00
39045;DHT22;52192;52.002;5.956;2024-03-08T14:52:08;28.80;29.90
39045;DHT22;52192;52.002;5.956;2024-03-08T14:54:53;28.90;30.00
39045;DHT22;52192;52.002;5.956;2024-03-08T14:57:19;29.00;30.00
39045;DHT22;52192;52.002;5.956;2024-03-08T14:59:45;28.90;29.70
39045;DHT22;52192;52.002;5.956;2024-03-08T15:02:10;28.70;29.90
39045;DHT22;52192;52.002;5.956;2024-03-08T15:04:36;28.50;29.80
39045;DHT22;52192;52.002;5.956;2024-03-08T15:07:02;28.30;29.70
39045;DHT22;52192;52.002;5.956;2024-03-08T15:09:31;28.20;29.70
39045;DHT22;52192;52.002;5.956;2024-03-08T15:12:06;28.10;29.70
39045;DHT22;52192;52.002;5.956;2024-03-08T15:14:32;27.80;29.70
39045;DHT22;52192;52.002;5.956;2024-03-08T15:16:58;27.80;30.00
39045;DHT22;52192;52.002;5.956;2024-03-08T15:19:24;27.80;29.90
39045;DHT22;52192;52.002;5.956;2024-03-08T15:21:50;27.70;29.70
39045;DHT22;52192;52.002;5.956;2024-03-08T15:24:20;27.40;29.70
39045;DHT22;52192;52.002;5.956;2024-03-08T15:26:47;27.50;30.00
39045;DHT22;52192;52.002;5.956;2024-03-08T15:29:16;27.50;29.70
39045;DHT22;52192;52.002;5.956;2024-03-08T15:31:43;27.30;29.40
39045;DHT22;52192;52.002;5.956;2024-03-08T15:34:08;27.00;29.70
39045;DHT22;52192;52.002;5.956;2024-03-08T15:36:36;26.80;30.00
39045;DHT22;52192;52.002;5.956;2024-03-08T15:39:02;26.70;29.90
39045;DHT22;52192;52.002;5.956;2024-03-08T15:41:35;26.50;29.90
39045;DHT22;52192;52.002;5.956;2024-03-08T15:44:01;26.20;30.00
39045;DHT22;52192;52.002;5.956;2024-03-08T15:46:26;25.80;30.30
39045;DHT22;52192;52.002;5.956;2024-03-08T15:48:53;25.30;30.60
39045;DHT22;52192;52.002;5.956;2024-03-08T15:51:19;24.70;31.10